Alma Center, WI

12:02 PM CDT on July 29, 2014 (GMT -0500)
Marshfield Municipal (KMFI) Elev 1276 ft | 44.64 °N, 90.19 °W | Change Station

Current weather conditions updated 8 minutes ago

Partly Cloudy
Partly Cloudy
75 °F
Feels Like 75 °F
N
12
Wind Variable Wind from NW

Today is forecast to be nearly the same temperature as yesterday. Slight chance of a thunderstorm.

Today
High -- | Low -- °F
--% Chance of Precip.
Yesterday
High -- | Low -- °F
Precip. -- in
5:47 AM 8:32 PM
Waxing Crescent, 7% visible
Pressure 30.06 in
Visibility 10.0 miles
Clouds Few 12000 ft
Dew Point 53 °F
Humidity 46%
Rainfall 0.00 in
Snow Depth Not available.
UV 9 out of 12
Pollen 6.70 out of 12
Air Quality Not available.
Flu Activity Not available.
METAR KMFI 291654Z AUTO 31010KT 10SM FEW120 24/12 A3007 RMK AO2 SLP177 T02390117

More Conditions Fewer Conditions

Pressure 30.06 in
Visibility 10.0 miles
Clouds Few 12000 ft
Dew Point 53 °F
Humidity 46%
Rainfall 0.00 in
Snow Depth Not available.
UV 9 out of 12
Pollen 6.70 out of 12
Air Quality Not available.
Flu Activity Not available.
METAR KMFI 291654Z AUTO 31010KT 10SM FEW120 24/12 A3007 RMK AO2 SLP177 T02390117

More Conditions Fewer Conditions

10-Day Weather Forecast

Almanac

Astronomy

Jul. 29, 2014 Rise Set
Actual Time 5:47 AM CDT 8:32 PM CDT
Civil Twilight 5:13 AM CDT 9:05 PM CDT
Nautical Twilight 4:31 AM CDT 9:48 PM CDT
Astronomical Twilight 3:41 AM CDT 10:37 PM CDT
Moon 8:32 AM CDT 9:35 PM CDT
Length of Visible Light 15h 52m
Length of Day
14h 44m
Tomorrow will be 2m 16s shorter.
Waxing Crescent, 7% of the Moon is Illuminated
Today
Waxing Crescent
Aug 3
First Quarter
Aug 10
Full
Aug 17
Last Quarter
Aug 25
New

Today's Extremes

State Highs State Lows

Community

WunderPhotos

Upload Photos

1,738,786 photos uploaded!

Nearby

Snow Depth

Station Depth Elevation
No new snow has been reported.

Earthquake Activity

City Distance Mag. Time & Date
No recent earthquake activity has been reported nearby.
Minimum magnitude displayed is 2.5.

Coastal Water Temperatures

Place Temperature
No Stations Reporting

Nearby Weather Stations

Station Location Temp. Heat Index Dew Point Humidity Wind Precip. Elev Updated Type
MesoWest HUMBIR , Humbird, WI 68 °F - - - North  at  - 0.00 in / hr 1092 ft 10:30 AM CDT MADIS
Osseo, WI 76.4 °F 78 °F 62 °F 62% SW  at  1.0 mph 0.00 in / hr 997 ft 11:58 AM CDT Normal

Show More Stations Show Fewer Stations